sensor_id;sensor_type;location;lat;lon;timestamp;P1;durP1;ratioP1;P2;durP2;ratioP2
20046;SDS011;45339;49.838;18.904;2022-07-06T00:07:42;17.95;;;13.88;;
20046;SDS011;45339;49.838;18.904;2022-07-06T00:37:51;12.77;;;10.45;;
20046;SDS011;45339;49.838;18.904;2022-07-06T01:08:00;36.95;;;25.17;;
20046;SDS011;45339;49.838;18.904;2022-07-06T01:38:08;38.38;;;26.33;;
20046;SDS011;45339;49.838;18.904;2022-07-06T02:08:20;40.80;;;25.50;;
20046;SDS011;45339;49.838;18.904;2022-07-06T02:38:29;37.92;;;25.70;;
20046;SDS011;45339;49.838;18.904;2022-07-06T03:08:38;41.17;;;28.52;;
20046;SDS011;45339;49.838;18.904;2022-07-06T03:38:47;40.13;;;27.83;;
20046;SDS011;45339;49.838;18.904;2022-07-06T04:08:56;34.28;;;24.75;;
20046;SDS011;45339;49.838;18.904;2022-07-06T04:39:06;34.97;;;25.10;;
20046;SDS011;45339;49.838;18.904;2022-07-06T05:09:16;27.27;;;22.67;;
20046;SDS011;45339;49.838;18.904;2022-07-06T05:39:26;23.40;;;17.13;;
20046;SDS011;45339;49.838;18.904;2022-07-06T06:09:35;16.63;;;14.60;;
20046;SDS011;45339;49.838;18.904;2022-07-06T06:39:44;23.60;;;16.50;;
20046;SDS011;45339;49.838;18.904;2022-07-06T07:09:53;24.65;;;18.73;;
20046;SDS011;45339;49.838;18.904;2022-07-06T07:40:02;14.32;;;7.50;;
20046;SDS011;45339;49.838;18.904;2022-07-06T08:10:11;4.17;;;3.77;;
20046;SDS011;45339;49.838;18.904;2022-07-06T09:40:41;4.55;;;3.00;;
20046;SDS011;45339;49.838;18.904;2022-07-06T10:10:51;2.17;;;1.60;;
20046;SDS011;45339;49.838;18.904;2022-07-06T11:11:13;3.30;;;1.20;;
20046;SDS011;45339;49.838;18.904;2022-07-06T11:41:25;1.50;;;1.40;;
20046;SDS011;45339;49.838;18.904;2022-07-06T12:11:35;2.28;;;1.40;;
20046;SDS011;45339;49.838;18.904;2022-07-06T12:41:46;5.13;;;1.77;;
20046;SDS011;45339;49.838;18.904;2022-07-06T13:11:56;3.30;;;2.00;;
20046;SDS011;45339;49.838;18.904;2022-07-06T13:42:05;4.10;;;1.90;;
20046;SDS011;45339;49.838;18.904;2022-07-06T14:12:15;2.10;;;1.48;;
20046;SDS011;45339;49.838;18.904;2022-07-06T15:12:50;1.10;;;1.00;;
20046;SDS011;45339;49.838;18.904;2022-07-06T15:42:59;1.10;;;1.00;;
20046;SDS011;45339;49.838;18.904;2022-07-06T16:13:09;1.95;;;1.38;;
20046;SDS011;45339;49.838;18.904;2022-07-06T16:43:20;5.18;;;2.10;;
20046;SDS011;45339;49.838;18.904;2022-07-06T17:13:29;2.47;;;1.67;;
20046;SDS011;45339;49.838;18.904;2022-07-06T17:43:38;3.00;;;1.97;;
20046;SDS011;45339;49.838;18.904;2022-07-06T19:44:25;4.97;;;3.53;;
20046;SDS011;45339;49.838;18.904;2022-07-06T20:14:33;8.85;;;3.70;;
20046;SDS011;45339;49.838;18.904;2022-07-06T20:44:42;6.55;;;4.00;;
20046;SDS011;45339;49.838;18.904;2022-07-06T21:14:56;10.00;;;6.43;;
20046;SDS011;45339;49.838;18.904;2022-07-06T21:45:05;6.20;;;4.37;;
20046;SDS011;45339;49.838;18.904;2022-07-06T22:15:16;7.00;;;3.43;;
20046;SDS011;45339;49.838;18.904;2022-07-06T22:45:25;7.77;;;5.77;;
20046;SDS011;45339;49.838;18.904;2022-07-06T23:15:34;5.50;;;4.40;;
20046;SDS011;45339;49.838;18.904;2022-07-06T23:45:42;6.90;;;5.40;;
